Time;durP1;ratioP1;P1;durP2;ratioP2;P2;SDS_P1;SDS_P2;PMS_P1;PMS_P2;Temp;Humidity;BMP_temperature;BMP_pressure;BME280_temperature;BME280_humidity;BME280_pressure;Samples;Min_cycle;Max_cycle;Signal;HPM_P1;HPM_P2
2021/09/20 00:01:56;;;;;;;15.75;10.77;;;12.40;99.90;;;;;;6234191;22;20038;-90
2021/09/20 00:04:44;;;;;;;11.43;9.98;;;12.30;99.90;;;;;;6255162;22;20036;-91
2021/09/20 00:07:31;;;;;;;13.18;10.02;;;12.30;99.90;;;;;;6253677;22;20054;-91
2021/09/20 00:10:19;;;;;;;11.88;9.60;;;12.40;99.90;;;;;;6272867;22;20027;-90
2021/09/20 00:13:06;;;;;;;11.63;9.55;;;12.40;99.90;;;;;;6231348;22;20085;-90
2021/09/20 00:15:53;;;;;;;12.35;9.38;;;12.40;99.90;;;;;;6275598;22;20020;-90
2021/09/20 00:18:41;;;;;;;12.32;9.27;;;12.40;99.90;;;;;;6272689;22;20034;-91
2021/09/20 00:21:28;;;;;;;11.15;9.20;;;12.40;99.90;;;;;;6233787;22;20353;-90
2021/09/20 00:24:18;;;;;;;11.52;9.52;;;12.30;99.90;;;;;;6254169;22;20028;-90
2021/09/20 00:27:10;;;;;;;11.57;9.30;;;12.30;99.90;;;;;;6254034;22;20063;-91
2021/09/20 00:29:57;;;;;;;12.50;9.30;;;12.30;99.90;;;;;;6234674;22;20027;-91
2021/09/20 00:32:44;;;;;;;12.15;9.55;;;12.30;99.90;;;;;;6233395;22;20039;-91
2021/09/20 00:35:34;;;;;;;11.80;9.43;;;12.30;99.90;;;;;;6252843;22;20102;-90
2021/09/20 00:38:22;;;;;;;15.35;10.07;;;12.30;99.90;;;;;;6274463;22;20058;-93
2021/09/20 00:41:11;;;;;;;12.00;10.00;;;12.30;99.90;;;;;;6254818;22;20502;-89
2021/09/20 00:43:58;;;;;;;14.45;9.98;;;12.20;99.90;;;;;;6252231;22;20156;-89
2021/09/20 00:46:46;;;;;;;15.77;10.63;;;12.30;99.90;;;;;;6251596;22;20530;-90
2021/09/20 00:49:33;;;;;;;12.95;9.63;;;12.20;99.90;;;;;;6230571;22;20083;-90
2021/09/20 00:52:20;;;;;;;10.85;9.20;;;12.20;99.90;;;;;;6251347;22;20042;-89
2021/09/20 00:55:09;;;;;;;14.32;10.43;;;12.20;99.90;;;;;;6253797;22;20033;-91
2021/09/20 00:57:56;;;;;;;14.43;9.88;;;12.20;99.90;;;;;;6250299;22;20117;-90
2021/09/20 01:00:44;;;;;;;13.75;10.65;;;12.20;99.90;;;;;;6273290;22;20050;-91
2021/09/20 01:03:33;;;;;;;12.50;9.95;;;12.20;99.90;;;;;;6273094;22;20035;-90
2021/09/20 01:06:21;;;;;;;12.63;10.00;;;12.20;99.90;;;;;;6254482;22;20371;-90
2021/09/20 01:09:08;;;;;;;11.23;9.60;;;12.20;99.90;;;;;;6253574;22;20126;-91
2021/09/20 01:11:56;;;;;;;14.18;10.32;;;12.30;99.90;;;;;;6272864;22;20039;-88
2021/09/20 01:14:46;;;;;;;12.32;9.35;;;12.30;99.90;;;;;;6272915;22;20039;-90
2021/09/20 01:17:33;;;;;;;13.13;9.95;;;12.30;99.90;;;;;;6241332;22;20438;-91
2021/09/20 01:20:22;;;;;;;13.88;10.13;;;12.30;99.90;;;;;;6291101;22;20028;-90
2021/09/20 01:23:10;;;;;;;11.98;9.98;;;12.30;99.90;;;;;;6264271;22;20269;-89
2021/09/20 01:25:57;;;;;;;15.55;11.57;;;12.20;99.90;;;;;;6235435;22;20490;-91
2021/09/20 01:28:45;;;;;;;13.50;10.07;;;12.10;99.90;;;;;;6274195;22;20106;-89
2021/09/20 01:31:32;;;;;;;15.20;10.18;;;12.10;99.90;;;;;;6275497;22;20430;-90
2021/09/20 01:34:20;;;;;;;16.55;10.95;;;12.10;99.90;;;;;;6254236;22;20053;-90
2021/09/20 01:37:07;;;;;;;15.32;10.88;;;12.10;99.90;;;;;;6251173;22;20019;-92
2021/09/20 01:39:57;;;;;;;13.25;10.68;;;12.10;99.90;;;;;;6276695;22;20027;-90
2021/09/20 01:42:44;;;;;;;11.95;10.18;;;12.10;99.90;;;;;;6253645;22;20047;-91
2021/09/20 01:45:33;;;;;;;13.35;10.48;;;12.10;99.90;;;;;;6274806;22;20105;-90
2021/09/20 01:48:20;;;;;;;13.38;10.07;;;12.10;99.90;;;;;;6231102;22;20028;-90
2021/09/20 01:51:07;;;;;;;12.68;10.23;;;12.10;99.90;;;;;;6275649;22;20023;-91
2021/09/20 01:53:55;;;;;;;14.20;11.00;;;12.00;99.90;;;;;;6252298;22;20485;-90
2021/09/20 01:56:42;;;;;;;12.52;10.25;;;12.00;99.90;;;;;;6254929;22;20036;-90
2021/09/20 01:59:30;;;;;;;13.32;10.73;;;12.00;99.90;;;;;;6255275;22;20031;-91
2021/09/20 02:02:19;;;;;;;13.50;11.20;;;12.00;99.90;;;;;;6266514;22;20028;-90
2021/09/20 02:05:08;;;;;;;13.75;10.55;;;12.00;99.90;;;;;;6291521;22;20020;-90
2021/09/20 02:07:55;;;;;;;14.40;10.95;;;12.10;99.90;;;;;;6281867;22;20023;-90
2021/09/20 02:10:42;;;;;;;13.35;11.02;;;12.10;99.90;;;;;;6252794;22;20089;-90
2021/09/20 02:13:30;;;;;;;17.88;11.45;;;12.10;99.90;;;;;;6274998;22;20027;-89
2021/09/20 02:16:17;;;;;;;11.63;9.40;;;12.10;99.90;;;;;;6273131;22;20327;-91
2021/09/20 02:19:05;;;;;;;14.20;10.93;;;12.10;99.90;;;;;;6252651;22;20030;-92
2021/09/20 04:32:54;;;;;;;;;;;11.90;99.90;;;;;;6239700;22;20024;-91
2021/09/20 04:40:11;;;;;;;;;;;;;;;;;;;;;
2021/09/20 04:43:05;;;;;;;19.63;13.75;;;11.90;99.90;;;;;;6247981;22;20035;-90
2021/09/20 04:57:29;;;;;;;19.92;13.82;;;12.00;99.90;;;;;;6240944;22;20024;-90
2021/09/20 05:01:11;;;;;;;18.58;13.48;;;12.00;99.90;;;;;;6249200;23;20024;-91
2021/09/20 05:03:59;;;;;;;17.77;13.95;;;12.00;99.90;;;;;;6246831;23;20038;-91
2021/09/20 05:06:55;;;;;;;19.75;14.13;;;12.00;99.90;;;;;;6245610;23;20435;-91
2021/09/20 05:09:42;;;;;;;21.55;13.73;;;12.00;99.90;;;;;;6242992;23;20369;-90
2021/09/20 05:12:37;;;;;;;16.55;12.65;;;11.90;99.90;;;;;;6245538;23;20039;-90
2021/09/20 05:19:35;;;;;;;20.92;14.13;;;11.90;99.90;;;;;;6243727;23;20020;-92
2021/09/20 05:23:25;;;;;;;;;;;;;;;;;;;;;
2021/09/20 05:26:20;;;;;;;27.48;17.23;;;12.00;99.90;;;;;;6121444;23;20026;-92
2021/09/20 05:29:50;;;;;;;28.88;17.90;;;12.00;99.90;;;;;;6123487;23;20022;-90
2021/09/20 05:38:36;;;;;;;;;;;;;;;;;;;;;
2021/09/20 05:41:22;;;;;;;20.73;14.80;;;12.10;99.90;;;;;;6166585;23;20072;-89
2021/09/20 05:44:09;;;;;;;19.75;14.25;;;12.10;99.90;;;;;;6222917;23;20380;-86
2021/09/20 05:51:03;;;;;;;21.55;14.75;;;12.30;99.90;;;;;;6252415;23;20449;-89
2021/09/20 05:53:53;;;;;;;19.42;14.48;;;12.40;99.90;;;;;;6203324;23;20331;-88
2021/09/20 05:56:40;;;;;;;24.52;14.77;;;12.40;99.90;;;;;;6237462;22;20046;-86
2021/09/20 05:59:30;;;;;;;24.40;15.23;;;12.40;99.90;;;;;;6253325;22;20046;-89
2021/09/20 06:02:17;;;;;;;21.58;15.65;;;12.40;99.90;;;;;;6278439;22;20016;-87
2021/09/20 06:05:05;;;;;;;25.55;14.38;;;12.50;99.90;;;;;;6254515;22;20027;-86
2021/09/20 06:07:53;;;;;;;21.48;14.40;;;12.60;99.90;;;;;;6274785;22;20023;-85
2021/09/20 06:10:42;;;;;;;19.23;13.38;;;12.60;99.90;;;;;;6251975;22;20092;-87
2021/09/20 06:13:30;;;;;;;21.85;13.38;;;12.70;99.90;;;;;;6273622;22;20109;-89
2021/09/20 06:16:24;;;;;;;20.25;14.98;;;12.80;99.90;;;;;;6274195;22;20042;-87
2021/09/20 06:19:19;;;;;;;21.15;14.60;;;12.90;99.90;;;;;;6275356;22;20089;-88
2021/09/20 06:22:22;;;;;;;22.02;13.23;;;13.00;99.90;;;;;;6274723;22;20069;-89
2021/09/20 06:25:10;;;;;;;18.63;13.25;;;13.10;99.90;;;;;;6276265;22;20038;-86
2021/09/20 06:28:04;;;;;;;16.08;12.35;;;13.20;99.90;;;;;;6276772;22;20024;-90
2021/09/20 06:31:33;;;;;;;19.40;12.40;;;13.20;99.90;;;;;;6275604;22;20540;-88
2021/09/20 06:34:26;;;;;;;15.40;12.40;;;13.20;99.90;;;;;;6260303;22;20030;-86
2021/09/20 06:37:21;;;;;;;17.15;12.73;;;13.20;99.90;;;;;;6275629;22;20031;-86
2021/09/20 06:40:39;;;;;;;18.90;12.88;;;13.30;99.90;;;;;;6277420;22;20023;-89
2021/09/20 06:43:52;;;;;;;17.90;13.07;;;13.40;99.90;;;;;;6276867;22;20016;-88
2021/09/20 06:47:09;;;;;;;;;;;;;;;;;;;;;
2021/09/20 06:50:37;;;;;;;23.90;14.32;;;13.50;99.90;;;;;;6278801;22;20020;-87
2021/09/20 06:54:02;;;;;;;18.98;14.05;;;13.60;99.90;;;;;;6196087;23;20025;-89
2021/09/20 06:57:54;;;;;;;;;;;;;;;;;;;;;
2021/09/20 07:09:04;;;;;;;16.37;12.60;;;13.90;99.90;;;;;;5805037;24;20023;-90
2021/09/20 07:11:58;;;;;;;15.63;12.25;;;14.10;99.90;;;;;;5892146;24;20249;-89
2021/09/20 07:14:54;;;;;;;16.45;12.50;;;14.20;99.90;;;;;;5960839;24;20072;-87
2021/09/20 07:17:41;;;;;;;17.45;12.07;;;14.30;99.90;;;;;;5960490;24;20157;-89
2021/09/20 07:21:40;;;;;;;17.35;12.27;;;14.50;99.90;;;;;;5965829;24;20052;-90
2021/09/20 07:24:31;;;;;;;20.13;12.52;;;14.80;99.90;;;;;;6012384;23;20117;-87
2021/09/20 07:27:33;;;;;;;18.05;13.05;;;14.90;99.90;;;;;;6085085;23;20105;-88
2021/09/20 07:30:30;;;;;;;21.73;15.23;;;15.00;99.90;;;;;;6182283;23;20140;-89
2021/09/20 07:33:22;;;;;;;23.10;16.27;;;15.00;99.90;;;;;;6181219;23;20056;-88
2021/09/20 07:36:30;;;;;;;20.42;16.48;;;15.10;99.90;;;;;;6161258;23;20060;-87
2021/09/20 07:39:28;;;;;;;20.80;14.80;;;15.10;99.90;;;;;;6182093;23;20058;-88
2021/09/20 07:42:59;;;;;;;18.60;14.55;;;15.10;99.90;;;;;;6233735;22;20054;-90
2021/09/20 07:45:32;;;;;;;21.45;14.68;;;15.20;99.90;;;;;;6278204;22;20031;-89
2021/09/20 07:48:22;;;;;;;18.38;14.38;;;15.20;99.90;;;;;;6277991;22;20019;-87
2021/09/20 07:51:10;;;;;;;19.25;13.23;;;15.40;99.90;;;;;;6274422;22;20039;-87
2021/09/20 07:54:05;;;;;;;14.93;12.70;;;15.60;99.90;;;;;;6253545;22;20024;-86
2021/09/20 07:57:01;;;;;;;14.63;11.30;;;15.80;99.90;;;;;;6275778;22;20387;-86
2021/09/20 08:00:00;;;;;;;;;;;;;;;;;;;;;
2021/09/20 08:02:54;;;;;;;13.63;10.35;;;16.10;99.90;;;;;;6276704;22;20038;-88
2021/09/20 08:05:41;;;;;;;14.70;11.65;;;16.20;99.90;;;;;;6278057;22;20033;-88
2021/09/20 08:08:54;;;;;;;15.00;12.23;;;16.30;99.90;;;;;;6276998;22;20051;-89
2021/09/20 08:11:50;;;;;;;14.13;12.05;;;16.30;99.90;;;;;;6272433;22;20042;-90
2021/09/20 08:14:37;;;;;;;12.85;11.00;;;16.20;99.90;;;;;;6274314;22;20027;-89
2021/09/20 08:17:24;;;;;;;13.88;12.13;;;16.30;99.90;;;;;;6274706;22;20034;-88
2021/09/20 08:20:12;;;;;;;13.93;11.93;;;16.40;99.90;;;;;;6274332;22;20110;-88
2021/09/20 08:23:04;;;;;;;13.55;11.48;;;16.40;99.90;;;;;;6247098;22;20028;-88
2021/09/20 08:25:52;;;;;;;15.02;11.50;;;16.60;99.90;;;;;;6249952;22;20023;-89
2021/09/20 08:28:39;;;;;;;13.02;11.63;;;16.80;99.90;;;;;;6277255;22;20032;-86
2021/09/20 08:31:27;;;;;;;13.70;11.48;;;16.80;99.90;;;;;;6288612;22;20053;-87
2021/09/20 08:34:15;;;;;;;12.55;11.20;;;16.70;99.90;;;;;;6277216;22;20093;-89
2021/09/20 08:37:08;;;;;;;13.88;11.88;;;16.70;99.90;;;;;;6273405;22;20035;-88
2021/09/20 08:40:05;;;;;;;11.55;10.35;;;16.80;99.90;;;;;;6278311;22;20028;-88
2021/09/20 08:43:13;;;;;;;17.60;12.07;;;16.90;99.90;;;;;;6281966;22;20035;-88
2021/09/20 08:46:06;;;;;;;16.52;12.38;;;16.80;99.90;;;;;;6258290;22;20039;-89
2021/09/20 08:48:58;;;;;;;17.38;12.10;;;16.70;99.90;;;;;;6274747;22;20089;-85
2021/09/20 08:51:54;;;;;;;14.40;11.60;;;16.70;99.90;;;;;;6275607;22;20034;-84
2021/09/20 08:54:46;;;;;;;13.25;11.48;;;17.00;99.90;;;;;;6274168;22;20081;-87
2021/09/20 08:57:34;;;;;;;16.57;13.30;;;17.20;99.90;;;;;;6275706;22;20031;-85
2021/09/20 09:00:22;;;;;;;17.88;12.82;;;17.10;99.90;;;;;;6276090;22;20404;-89
2021/09/20 09:03:19;;;;;;;14.90;12.10;;;17.00;99.90;;;;;;6272678;22;20384;-89
2021/09/20 09:06:10;;;;;;;15.40;11.68;;;17.00;99.90;;;;;;6276789;22;20036;-91
2021/09/20 09:08:57;;;;;;;16.98;12.13;;;16.90;99.90;;;;;;6274966;22;20089;-88
2021/09/20 09:11:47;;;;;;;15.23;12.10;;;17.10;99.90;;;;;;6273517;22;20049;-89
2021/09/20 09:14:53;;;;;;;15.60;12.20;;;17.00;99.90;;;;;;6275396;22;20039;-89
2021/09/20 09:17:48;;;;;;;13.63;11.32;;;16.80;99.90;;;;;;6274375;22;20116;-87
2021/09/20 09:20:38;;;;;;;13.38;11.10;;;17.00;99.90;;;;;;6274133;22;20035;-87
2021/09/20 09:23:40;;;;;;;12.40;11.10;;;17.00;99.90;;;;;;6274662;22;20031;-87
2021/09/20 09:26:28;;;;;;;18.17;12.35;;;16.80;99.90;;;;;;6252795;22;20363;-87
2021/09/20 09:29:19;;;;;;;13.38;10.55;;;16.50;99.90;;;;;;6272753;22;20045;-87
2021/09/20 09:32:06;;;;;;;13.18;11.27;;;16.20;99.90;;;;;;6273908;22;20431;-88
2021/09/20 09:34:59;;;;;;;13.77;12.23;;;16.00;99.90;;;;;;6271331;22;20023;-86
2021/09/20 09:37:47;;;;;;;15.40;13.18;;;15.80;99.90;;;;;;6274890;22;20059;-86
2021/09/20 09:40:57;;;;;;;15.05;13.43;;;15.60;99.90;;;;;;6252223;22;20028;-86
2021/09/20 09:43:47;;;;;;;17.50;12.35;;;15.40;99.90;;;;;;6272494;22;20024;-88
2021/09/20 09:46:44;;;;;;;13.55;11.60;;;15.30;99.90;;;;;;6277340;22;20031;-87
2021/09/20 09:49:32;;;;;;;14.38;11.82;;;15.30;99.90;;;;;;6282846;22;20024;-87
2021/09/20 09:52:20;;;;;;;13.65;11.38;;;15.20;99.90;;;;;;6279325;22;20024;-86
2021/09/20 09:55:09;;;;;;;14.07;11.15;;;15.20;99.90;;;;;;6279797;22;20027;-89
2021/09/20 09:58:08;;;;;;;14.05;11.73;;;15.10;99.90;;;;;;6251777;22;20031;-89
2021/09/20 10:01:15;;;;;;;14.25;12.32;;;15.00;99.90;;;;;;6224580;23;20035;-89
2021/09/20 10:04:20;;;;;;;17.25;12.88;;;15.00;99.90;;;;;;6247663;23;20508;-89
2021/09/20 10:07:08;;;;;;;17.25;13.70;;;14.90;99.90;;;;;;6254509;23;20043;-89
2021/09/20 10:09:59;;;;;;;17.83;13.13;;;14.90;99.90;;;;;;6251916;22;20127;-87
2021/09/20 10:12:50;;;;;;;17.38;13.60;;;14.80;99.90;;;;;;6247695;22;20032;-88
2021/09/20 10:15:37;;;;;;;20.25;14.25;;;14.80;99.90;;;;;;6244175;23;20031;-90
2021/09/20 10:18:24;;;;;;;17.15;13.82;;;14.70;99.90;;;;;;6244116;23;20046;-88
2021/09/20 10:21:15;;;;;;;21.92;14.88;;;14.80;99.90;;;;;;6221742;23;20032;-87
2021/09/20 10:24:04;;;;;;;18.67;15.45;;;14.80;99.90;;;;;;6247509;22;20020;-87
2021/09/20 10:26:52;;;;;;;18.40;13.82;;;14.80;99.90;;;;;;6247506;22;20056;-88
2021/09/20 10:29:49;;;;;;;18.70;14.65;;;14.80;99.90;;;;;;6246910;23;20102;-88
2021/09/20 10:32:40;;;;;;;18.77;13.57;;;14.80;99.90;;;;;;6252163;23;20059;-87
2021/09/20 10:35:30;;;;;;;21.67;16.13;;;14.80;99.90;;;;;;6237494;23;20327;-90
2021/09/20 10:38:20;;;;;;;20.35;14.60;;;14.70;99.90;;;;;;6247390;23;20024;-87
2021/09/20 10:41:36;;;;;;;18.83;15.23;;;14.70;99.90;;;;;;6244065;23;20034;-87
2021/09/20 10:44:40;;;;;;;20.00;15.75;;;14.70;99.90;;;;;;6247666;22;20020;-87
2021/09/20 10:47:47;;;;;;;27.17;17.98;;;14.80;99.90;;;;;;6224416;23;20106;-90
2021/09/20 10:50:48;;;;;;;22.00;16.63;;;14.80;99.90;;;;;;6223618;23;20090;-89
2021/09/20 10:53:39;;;;;;;23.30;15.90;;;14.80;99.90;;;;;;6246415;23;20131;-87
2021/09/20 10:56:33;;;;;;;24.90;16.17;;;14.90;99.90;;;;;;6244996;22;20038;-90
2021/09/20 10:59:27;;;;;;;21.48;16.02;;;15.00;99.90;;;;;;6245211;23;20028;-90
2021/09/20 11:02:25;;;;;;;21.60;16.52;;;15.20;99.90;;;;;;6247328;23;20086;-86
2021/09/20 11:05:13;;;;;;;28.45;16.20;;;15.30;99.90;;;;;;6223425;23;20509;-88
2021/09/20 11:08:19;;;;;;;21.13;16.02;;;15.40;99.90;;;;;;6244444;23;20035;-89
2021/09/20 11:11:43;;;;;;;26.95;16.38;;;15.50;99.90;;;;;;6224972;23;20035;-86
2021/09/20 11:14:49;;;;;;;20.17;15.63;;;15.50;99.90;;;;;;6246580;23;20074;-90
2021/09/20 11:17:42;;;;;;;19.95;14.00;;;15.60;99.90;;;;;;6244705;23;20072;-87
2021/09/20 11:20:42;;;;;;;25.80;15.98;;;15.70;99.90;;;;;;6245758;23;20127;-88
2021/09/20 11:23:36;;;;;;;20.10;15.48;;;15.80;99.90;;;;;;6245920;23;20024;-89
2021/09/20 11:26:25;;;;;;;19.30;14.25;;;16.00;99.90;;;;;;6245703;23;20024;-88
2021/09/20 11:29:23;;;;;;;18.83;13.95;;;16.30;99.90;;;;;;6228760;23;20020;-85
2021/09/20 11:32:24;;;;;;;18.08;14.05;;;16.60;99.90;;;;;;6246545;23;20024;-87
2021/09/20 11:35:15;;;;;;;18.60;13.95;;;16.90;99.90;;;;;;6247003;23;20024;-88
2021/09/20 11:38:12;;;;;;;18.35;14.10;;;17.20;99.90;;;;;;6226396;23;20028;-89
2021/09/20 11:41:01;;;;;;;17.02;14.07;;;17.50;99.90;;;;;;6246699;23;20020;-88
2021/09/20 11:43:49;;;;;;;16.83;13.13;;;17.80;99.90;;;;;;6204077;23;20078;-85
2021/09/20 11:46:38;;;;;;;15.93;13.52;;;18.30;99.90;;;;;;6220480;23;20428;-86
2021/09/20 11:49:27;;;;;;;18.83;13.40;;;18.80;99.90;;;;;;6246146;22;20024;-83
2021/09/20 11:52:28;;;;;;;14.90;12.27;;;19.10;99.90;;;;;;6242810;23;20024;-85
2021/09/20 11:55:24;;;;;;;15.65;12.57;;;19.00;99.90;;;;;;6244102;23;20370;-84
2021/09/20 11:58:14;;;;;;;16.15;12.35;;;19.20;99.90;;;;;;6272825;22;20020;-84
2021/09/20 12:01:01;;;;;;;17.30;14.18;;;19.10;99.90;;;;;;6276112;22;20019;-85
2021/09/20 12:03:52;;;;;;;20.23;13.57;;;19.70;99.90;;;;;;6271173;22;20020;-86
2021/09/20 12:06:45;;;;;;;14.00;11.77;;;20.70;99.90;;;;;;6274732;22;20389;-85
2021/09/20 12:09:36;;;;;;;14.02;11.27;;;21.00;99.90;;;;;;6276276;22;20034;-85
2021/09/20 12:12:32;;;;;;;12.40;10.30;;;20.40;99.90;;;;;;6275965;22;20023;-86
2021/09/20 12:15:23;;;;;;;17.52;10.82;;;20.30;99.90;;;;;;6274731;22;20036;-87
2021/09/20 12:18:19;;;;;;;15.25;11.70;;;20.10;99.90;;;;;;6277089;22;20035;-86
2021/09/20 12:21:12;;;;;;;12.82;11.32;;;19.70;99.90;;;;;;6273856;22;20083;-86
2021/09/20 12:24:00;;;;;;;16.65;13.52;;;19.60;99.90;;;;;;6276676;22;20030;-86
2021/09/20 12:26:47;;;;;;;17.13;12.00;;;19.30;99.90;;;;;;6275251;22;20701;-83
2021/09/20 12:29:34;;;;;;;12.73;10.98;;;19.00;99.90;;;;;;6276419;22;20031;-83
2021/09/20 12:32:22;;;;;;;11.70;10.27;;;18.80;99.90;;;;;;6274176;22;20068;-83
2021/09/20 12:35:12;;;;;;;12.77;10.50;;;18.50;99.90;;;;;;6274986;22;20030;-82
2021/09/20 12:38:28;;;;;;;12.13;8.40;;;18.10;99.90;;;;;;6275813;22;20074;-85
2021/09/20 12:41:16;;;;;;;13.95;9.98;;;17.80;99.90;;;;;;6275137;22;20044;-84
2021/09/20 12:44:04;;;;;;;12.52;10.40;;;17.70;99.90;;;;;;6273250;22;20034;-84
2021/09/20 12:47:00;;;;;;;15.27;11.38;;;17.30;99.90;;;;;;6275920;22;20438;-83
2021/09/20 12:50:01;;;;;;;11.25;9.82;;;17.00;99.90;;;;;;6275598;22;20046;-83
2021/09/20 12:52:55;;;;;;;9.98;8.88;;;16.90;99.90;;;;;;6275116;22;20055;-83
2021/09/20 12:55:43;;;;;;;10.55;8.80;;;16.60;99.90;;;;;;6276286;22;20133;-86
2021/09/20 12:58:36;;;;;;;15.02;10.85;;;16.50;99.90;;;;;;6273825;22;20038;-83
2021/09/20 13:01:27;;;;;;;13.60;10.77;;;16.40;99.90;;;;;;6276310;22;20023;-87
2021/09/20 13:04:23;;;;;;;13.60;10.73;;;16.30;99.90;;;;;;6272375;22;20037;-85
2021/09/20 13:07:27;;;;;;;15.57;11.57;;;16.30;99.90;;;;;;6272451;22;20137;-84
2021/09/20 13:10:16;;;;;;;14.00;11.05;;;16.30;99.90;;;;;;6280413;22;20027;-86
2021/09/20 13:13:04;;;;;;;14.93;11.02;;;16.30;99.90;;;;;;6285974;22;20115;-85
2021/09/20 13:15:52;;;;;;;15.27;12.57;;;16.30;99.90;;;;;;6279211;22;20348;-87
2021/09/20 13:18:41;;;;;;;12.50;11.10;;;16.30;99.90;;;;;;6275705;22;20097;-84
2021/09/20 13:21:31;;;;;;;13.98;11.45;;;16.40;99.90;;;;;;6277188;22;20073;-88
2021/09/20 13:24:38;;;;;;;14.88;12.05;;;16.40;99.90;;;;;;6279167;22;20027;-87
2021/09/20 13:27:25;;;;;;;13.57;10.98;;;16.60;99.90;;;;;;6276977;22;20023;-88
2021/09/20 13:30:18;;;;;;;13.23;10.88;;;16.80;99.90;;;;;;6276172;22;20081;-88
2021/09/20 13:33:06;;;;;;;14.85;11.25;;;17.00;99.90;;;;;;6278280;22;20102;-88
2021/09/20 13:35:56;;;;;;;15.27;11.98;;;17.20;99.90;;;;;;6276652;22;20028;-85
2021/09/20 13:38:46;;;;;;;12.35;10.73;;;17.20;99.90;;;;;;6275380;22;20024;-84
2021/09/20 13:41:35;;;;;;;14.60;10.20;;;17.50;99.90;;;;;;6273413;22;20098;-86
2021/09/20 13:44:25;;;;;;;13.88;9.85;;;18.10;99.90;;;;;;6272485;22;20030;-85
2021/09/20 13:47:15;;;;;;;15.50;9.48;;;18.80;99.90;;;;;;6274313;22;20032;-86
2021/09/20 13:50:04;;;;;;;11.55;9.10;;;20.10;99.90;;;;;;6275678;22;20030;-86
2021/09/20 13:52:51;;;;;;;11.45;9.05;;;20.60;99.90;;;;;;6271546;22;20035;-85
2021/09/20 13:55:38;;;;;;;14.73;11.13;;;21.00;98.60;;;;;;6274116;22;20057;-86
2021/09/20 13:58:28;;;;;;;11.43;9.32;;;21.90;97.30;;;;;;6253642;22;20099;-85
2021/09/20 14:01:22;;;;;;;10.20;8.98;;;22.80;94.20;;;;;;6282352;22;20039;-86
2021/09/20 14:04:09;;;;;;;12.35;8.60;;;24.70;86.80;;;;;;6282222;22;20032;-86
2021/09/20 14:06:57;;;;;;;13.05;8.43;;;25.90;75.10;;;;;;6275932;22;20031;-84
2021/09/20 14:09:45;;;;;;;10.93;7.60;;;26.00;68.10;;;;;;6273249;22;20494;-88
2021/09/20 14:12:32;;;;;;;10.07;8.50;;;25.80;64.70;;;;;;6276231;22;20059;-87
2021/09/20 14:15:24;;;;;;;9.70;8.70;;;24.80;68.50;;;;;;6272996;22;20035;-89
2021/09/20 14:18:13;;;;;;;9.07;7.57;;;24.00;73.30;;;;;;6283389;22;20019;-88
2021/09/20 14:21:06;;;;;;;13.25;7.03;;;23.90;71.60;;;;;;6282777;22;20019;-89
2021/09/20 14:23:58;;;;;;;10.25;7.97;;;23.60;71.50;;;;;;6273620;22;20031;-89
2021/09/20 14:26:50;;;;;;;8.55;7.60;;;22.50;73.10;;;;;;6274836;22;20059;-88
2021/09/20 14:29:40;;;;;;;9.98;6.97;;;21.60;76.50;;;;;;6272485;22;20043;-88
2021/09/20 14:32:29;;;;;;;9.10;7.75;;;20.70;81.80;;;;;;6277316;22;20074;-86
2021/09/20 14:35:16;;;;;;;11.15;7.78;;;20.00;86.80;;;;;;6274004;22;20415;-88
2021/09/20 14:38:05;;;;;;;9.85;7.50;;;19.60;91.00;;;;;;6275908;22;20431;-86
2021/09/20 14:40:52;;;;;;;10.73;8.90;;;19.00;92.60;;;;;;6276340;22;20441;-85
2021/09/20 14:43:40;;;;;;;12.32;8.90;;;18.30;95.70;;;;;;6277534;22;20516;-87
2021/09/20 14:46:30;;;;;;;13.57;9.80;;;17.90;98.30;;;;;;6274746;22;20042;-85
2021/09/20 14:49:18;;;;;;;13.48;9.25;;;17.60;99.90;;;;;;6277474;22;20038;-87
2021/09/20 14:52:05;;;;;;;11.38;9.20;;;17.40;99.90;;;;;;6276010;22;20070;-87
2021/09/20 14:54:53;;;;;;;11.13;8.75;;;17.30;99.90;;;;;;6274563;22;20043;-86
2021/09/20 14:57:41;;;;;;;13.30;9.52;;;17.30;99.90;;;;;;6250556;22;20023;-86
2021/09/20 15:00:29;;;;;;;13.30;9.05;;;18.00;99.90;;;;;;6224476;23;20032;-90
2021/09/20 15:03:16;;;;;;;10.70;8.07;;;20.00;99.90;;;;;;6245592;23;20038;-88
2021/09/20 15:06:05;;;;;;;8.25;7.10;;;21.10;95.10;;;;;;6202441;23;20043;-85
2021/09/20 15:08:54;;;;;;;10.23;7.85;;;21.30;92.10;;;;;;6243469;23;20024;-86
2021/09/20 15:11:41;;;;;;;10.10;7.78;;;20.70;91.80;;;;;;6221476;23;20063;-86
2021/09/20 15:14:28;;;;;;;9.77;8.52;;;19.90;95.20;;;;;;6242150;23;20032;-86
2021/09/20 15:17:16;;;;;;;10.88;7.35;;;19.50;94.90;;;;;;6201869;23;20028;-87
2021/09/20 15:20:03;;;;;;;11.13;7.32;;;19.00;97.30;;;;;;6223741;23;20059;-86
2021/09/20 15:22:52;;;;;;;9.57;6.45;;;18.60;98.40;;;;;;6223654;23;20028;-86
2021/09/20 15:25:43;;;;;;;8.10;6.60;;;18.30;98.80;;;;;;6243570;23;20020;-85
2021/09/20 15:28:33;;;;;;;11.20;7.45;;;18.10;99.90;;;;;;6220429;23;20451;-87
2021/09/20 15:31:21;;;;;;;15.60;7.75;;;17.80;99.90;;;;;;6222208;23;20028;-86
2021/09/20 15:34:09;;;;;;;11.02;7.22;;;17.60;99.90;;;;;;6243368;23;20028;-87
2021/09/20 15:36:56;;;;;;;8.52;7.53;;;17.40;99.90;;;;;;6244270;23;20032;-85
2021/09/20 15:39:44;;;;;;;10.57;8.38;;;17.20;99.90;;;;;;6224522;23;20078;-84
2021/09/20 15:42:43;;;;;;;10.90;8.63;;;17.10;99.90;;;;;;6244070;23;20031;-88
2021/09/20 15:45:34;;;;;;;12.70;10.10;;;16.90;99.90;;;;;;6226761;23;20300;-88
2021/09/20 15:48:23;;;;;;;14.02;9.45;;;16.80;99.90;;;;;;6233644;23;20039;-84
2021/09/20 15:51:10;;;;;;;12.82;10.27;;;16.70;99.90;;;;;;6233714;23;20134;-87
2021/09/20 15:54:00;;;;;;;12.20;9.68;;;16.60;99.90;;;;;;6224395;23;20028;-84
2021/09/20 15:56:51;;;;;;;9.63;8.63;;;16.50;99.90;;;;;;6236935;22;20026;-86
2021/09/20 15:59:40;;;;;;;13.15;10.00;;;16.50;99.90;;;;;;6273482;22;20415;-87
2021/09/20 16:02:27;;;;;;;10.45;8.57;;;16.50;99.90;;;;;;6278075;22;20020;-88
2021/09/20 16:05:34;;;;;;;11.93;9.55;;;16.50;99.90;;;;;;6277802;22;20079;-88
2021/09/20 16:08:28;;;;;;;;;;;16.40;99.90;;;;;;6276292;22;20031;-87
2021/09/20 16:11:18;;;;;;;12.75;9.65;;;16.30;99.90;;;;;;6272158;22;20460;-88
2021/09/20 16:14:08;;;;;;;12.32;9.27;;;16.20;99.90;;;;;;6274486;22;20058;-87
2021/09/20 16:16:56;;;;;;;12.82;10.38;;;16.20;99.90;;;;;;6274058;22;20028;-88
2021/09/20 16:19:45;;;;;;;12.90;10.43;;;16.10;99.90;;;;;;6274962;22;20422;-87
2021/09/20 16:22:33;;;;;;;10.60;9.43;;;16.00;99.90;;;;;;6276398;22;20377;-87
2021/09/20 16:25:22;;;;;;;13.40;10.55;;;16.00;99.90;;;;;;6273789;22;20028;-87
2021/09/20 16:28:10;;;;;;;16.70;12.00;;;15.90;99.90;;;;;;6275078;22;20027;-87
2021/09/20 16:30:59;;;;;;;13.18;11.15;;;15.70;99.90;;;;;;6272824;22;20307;-85
2021/09/20 16:33:49;;;;;;;13.25;10.40;;;15.70;99.90;;;;;;6276054;22;20117;-86
2021/09/20 16:36:36;;;;;;;12.45;9.80;;;15.60;99.90;;;;;;6273090;22;20093;-87
2021/09/20 16:39:23;;;;;;;11.13;9.98;;;15.60;99.90;;;;;;6274223;22;20374;-85
2021/09/20 16:42:10;;;;;;;11.45;9.93;;;15.50;99.90;;;;;;6274408;22;20023;-85
2021/09/20 16:45:02;;;;;;;12.95;10.07;;;15.50;99.90;;;;;;6272808;22;20120;-84
2021/09/20 16:47:49;;;;;;;14.20;10.50;;;15.40;99.90;;;;;;6274204;22;20099;-86
2021/09/20 16:50:39;;;;;;;12.93;10.43;;;15.30;99.90;;;;;;6276451;22;20094;-85
2021/09/20 16:53:26;;;;;;;14.70;10.82;;;15.20;99.90;;;;;;6275161;22;20031;-86
2021/09/20 16:56:14;;;;;;;17.05;11.75;;;15.00;99.90;;;;;;6270073;22;20389;-85
2021/09/20 16:59:01;;;;;;;15.25;11.35;;;14.90;99.90;;;;;;6242794;23;20028;-87
2021/09/20 17:01:51;;;;;;;15.25;11.48;;;14.70;99.90;;;;;;6244891;23;20024;-86
2021/09/20 17:04:39;;;;;;;13.70;12.30;;;14.60;99.90;;;;;;6244200;23;20024;-86
2021/09/20 17:07:28;;;;;;;15.52;11.52;;;14.40;99.90;;;;;;6223037;23;20054;-87
2021/09/20 17:10:16;;;;;;;13.25;11.32;;;14.30;99.90;;;;;;6243325;23;20336;-87
2021/09/20 17:13:04;;;;;;;15.25;12.45;;;14.20;99.90;;;;;;6244484;23;20028;-86
2021/09/20 17:15:51;;;;;;;17.23;12.07;;;14.10;99.90;;;;;;6224265;23;20032;-87
2021/09/20 17:18:38;;;;;;;15.88;12.48;;;13.90;99.90;;;;;;6222242;23;20024;-88
2021/09/20 17:21:28;;;;;;;15.70;12.27;;;13.80;99.90;;;;;;6246241;23;20028;-88
2021/09/20 17:24:17;;;;;;;20.33;13.20;;;13.70;99.90;;;;;;6221945;23;20082;-87
2021/09/20 17:27:04;;;;;;;14.20;12.27;;;13.60;99.90;;;;;;6222075;23;20024;-89
2021/09/20 17:29:52;;;;;;;19.35;13.23;;;13.60;99.90;;;;;;6220650;23;20302;-85
2021/09/20 17:32:41;;;;;;;15.55;12.68;;;13.50;99.90;;;;;;6244206;23;20028;-86
2021/09/20 17:35:37;;;;;;;17.27;12.70;;;13.40;99.90;;;;;;6244946;23;20032;-90
2021/09/20 17:38:26;;;;;;;18.60;13.80;;;13.30;99.90;;;;;;6248523;22;20419;-87